Главная страница
METAR-TAF:

METAR-TAF

Аэропорты :

Florø, Норвегия

широта: 61-35N, долгота: 005-02E, высота над уровнем моря: 0 м

Текущие метеонаблюдения

Эта сводка был подготовлена 15 минут назад, в 20:20 UTC
Ветер 5 Узел от западный
Температура 10°C
Влажность 71%
Давление 1010 hPa
Видимость 10 км и более

METAR: ENFL 132020Z AUTO 28005KT 9999NDV BKN064/// 10/05 Q1010

Время: 22:35 (20:35 UTC)

Прогноз

Эта сводка был подготовлена 3 часа и 35 минут назад, в 17:00 UTC
Прогноз действительный с 13-го 18 UTC до 14-го 03 UTC
Ветер 8 Узел от юго-западный
Видимость 10 км и более
небольшая облачность на высоте 2000 фута
Отдельные облака на высоте 4000 фута
изменения
С 13-го 23 UTC до 14-го 01 UTC
Ветер 10 Узел от восточный

TAF: ENFL 131700Z 1318/1403 23008KT 9999 FEW020 SCT040 BECMG 1323/1401 09010KT

Метеонаблюдения и прогнозы для более 4000 аэропортов (сводки METAR и TAF).

Имеющиеся станции представлены на карте желтыми и красными точками.

Чтобы увидеть название станции, наведите на нее мышь.

Затем щелкните, чтобы увидеть метеонаблюдения и метеопрогнозы.

Управление картой: чтобы увеличить масштаб, щелкните зеленые кнопки с черным крестиком; чтобы уменьшить масштаб, щелкните зеленую кнопку с тире; для просмотра соседних карт щелкайте зеленые стрелки.


METAR-TAF: